Terminal Aerodrome Forecast
Issued by NWS Salt Lake City, UT

Home | Current Version | Previous Version | Text Only | Print | Product List | Glossary On
Versions: 1 2 3 4 5 6 7 8 9 10 11 12 13 14 15 16 17 18 19 20 21 22 23 24 25 26 27 28 29 30
000
FTUS45 KSLC 231728
TAFSLC
TAF
KSLC 231728Z 2318/2424 30010KT P6SM SCT080 BKN120
     FM232000 35012G20KT P6SM VCSH SCT060 BKN100
     FM240400 16009KT P6SM SCT070 BKN120
     FM240700 15006KT P6SM SCT150
     FM241500 17010KT P6SM VCSH SCT050 BKN070
     FM241900 30012KT P6SM -SHRA BKN040=

USA.gov is the U.S. government's official web portal to all federal, state and local government web resources and services.